Airfield :
LOGIN :

Register | Disclaimer

   EN    FR    IT 

 










Legend :    VFR   Marginal VFR   IFR   Intensive IFR   Very Intensive IFR
Visi :
Ceiling :
>= 8 km
>= 3000ft
5 to 8 km
1000 to 3000 ft
1500m to 5 km
500 to 1000 ft
800 to 1500m
200 to 500 ft
< 800m
< 200 ft
Symbols :   Thunderstorms  Fog  Heavy snow  Heavy precipitations  Wind > 20 kt
SIGMETs :     Misc.  Thunderstorms  Icing  Turbulence  Mountain Waves  Volcanic Ashes







- Airport Elevation : 348 ft
- IATA code : TSR


LRTR - Timisoara

CURRENT METAR :
  • 182100Z 05003KT 8000 -RA BKN012 OVC030 03/02 Q1017 RERA R11/290095

EXPIRED METARs :
  • 182030Z VRB02KT 8000 -RA SCT014 OVC031 03/03 Q1017 R11/290095
  • 182000Z 13003KT 070V150 9999 -RA FEW023 OVC030 04/02 Q1017 R11/190095
  • 181930Z 11004KT 070V140 9999 -RA OVC030 04/02 Q1018
  • 181900Z 12003KT 060V160 9999 OVC036 05/M00 Q1018
  • 181830Z 27003KT 9999 BKN045 04/M00 Q1018

TAF TAF LRTR
Valid from the 18 at 18:00 until the 19 at 18:00 UTC


181700Z 1818/1918 VRB04KT CAVOK
BECMG 1819/1821 5000 -RA BR BKN015 OVC040
BECMG 1821/1823 -SNRA BKN010 OVC030
BECMG 1823/1901 3000 -SN BR BKN005 OVC025
TEMPO 1901/1906 1500 SN BKN002 OVC020
BECMG 1908/1910 5000 -RA BR BKN010 BKN035
BECMG 1911/1913 9999 NSW SCT015 BKN040
No reported NOTAMs for that airfield.



MET'MAP, your aeronautical weather chart ! - Copyright ORBIFLY December 2007 - Disclaimer

ORBIFLY MET'MAP TEAM :

Programming & Development : Alexandra Zaïnal
Concept & Development : Baudouin d'Aumeries
Co-Development & Prog : Marc-Olivier Méhu
Technical & hardware support : Manuel Goepfert

Contact : metmap@orbifly.com




SOURCES & CREDITS :

   NOAA